createdAt,value
2016-08-01T00:00:57.337Z,739.71
2016-08-01T00:01:57.329Z,739.7
2016-08-01T00:02:57.317Z,739.73
2016-08-01T00:03:57.306Z,739.73
2016-08-01T00:04:57.295Z,739.72
2016-08-01T00:05:57.285Z,739.7
2016-08-01T00:06:57.275Z,739.74
2016-08-01T00:07:57.272Z,739.62
2016-08-01T00:08:57.260Z,739.68
2016-08-01T00:09:57.244Z,739.72
2016-08-01T00:10:57.231Z,739.76
2016-08-01T00:11:57.223Z,739.76
2016-08-01T00:12:57.217Z,739.7
2016-08-01T00:13:57.207Z,739.72
2016-08-01T00:14:57.196Z,739.71
2016-08-01T00:15:57.185Z,739.75
2016-08-01T00:16:57.174Z,739.73
2016-08-01T00:17:57.164Z,739.72
2016-08-01T00:18:57.148Z,739.76
2016-08-01T00:20:57.127Z,739.69
2016-08-01T00:21:57.117Z,739.72
2016-08-01T00:22:57.113Z,739.76
2016-08-01T00:23:57.101Z,739.77
2016-08-01T00:24:57.092Z,739.7
2016-08-01T00:25:57.075Z,739.71
2016-08-01T00:26:57.063Z,739.68
2016-08-01T00:27:57.061Z,739.69
2016-08-01T00:28:57.044Z,739.7
2016-08-01T00:29:57.033Z,739.65
2016-08-01T00:30:57.023Z,739.65
2016-08-01T00:31:57.019Z,739.54
2016-08-01T00:32:57.010Z,739.64
2016-08-01T00:33:56.991Z,739.61
2016-08-01T00:34:56.981Z,739.41
2016-08-01T00:35:56.970Z,739.53
2016-08-01T00:36:56.968Z,739.53
2016-08-01T00:37:56.949Z,739.5
2016-08-01T00:38:56.947Z,739.55
2016-08-01T00:39:56.929Z,739.5
2016-08-01T00:40:56.921Z,739.54
2016-08-01T00:41:56.915Z,739.52
2016-08-01T00:42:56.905Z,739.56
2016-08-01T00:43:56.888Z,739.53
2016-08-01T00:44:56.884Z,739.56
2016-08-01T00:45:56.874Z,739.57
2016-08-01T00:46:56.865Z,739.55
2016-08-01T00:47:56.848Z,739.56
2016-08-01T00:48:56.837Z,739.59
2016-08-01T00:49:56.827Z,739.57
2016-08-01T00:50:56.822Z,739.56
2016-08-01T00:51:56.813Z,739.54
2016-08-01T00:52:56.803Z,739.57
2016-08-01T00:53:56.792Z,739.52
2016-08-01T00:54:56.775Z,739.52
2016-08-01T00:55:56.772Z,739.5
2016-08-01T00:56:56.762Z,739.55
2016-08-01T00:57:56.747Z,739.55
2016-08-01T00:58:56.748Z,739.49
2016-08-01T00:59:56.726Z,739.45
2016-08-01T01:00:56.724Z,739.49
2016-08-01T01:01:56.708Z,739.48
2016-08-01T01:02:56.698Z,739.45
2016-08-01T01:03:56.695Z,739.45
2016-08-01T01:04:56.678Z,739.5
2016-08-01T01:05:56.669Z,739.49
2016-08-01T01:06:56.665Z,739.48
2016-08-01T01:07:56.648Z,739.46
2016-08-01T01:08:56.646Z,739.46
2016-08-01T01:09:56.629Z,739.51
2016-08-01T01:10:56.625Z,739.52
2016-08-01T01:11:56.617Z,739.54
2016-08-01T01:12:56.607Z,739.51
2016-08-01T01:13:56.589Z,739.5
2016-08-01T01:14:56.579Z,739.48
2016-08-01T01:15:56.570Z,739.54
2016-08-01T01:16:56.559Z,739.43
2016-08-01T01:17:56.556Z,739.42
2016-08-01T01:18:56.546Z,739.46
2016-08-01T01:19:56.537Z,739.5
2016-08-01T01:20:56.526Z,739.45
2016-08-01T01:21:56.509Z,739.44
2016-08-01T01:22:56.499Z,739.35
2016-08-01T01:23:56.490Z,739.36
2016-08-01T01:24:56.479Z,739.4
2016-08-01T01:25:56.481Z,739.42
2016-08-01T01:26:56.466Z,739.44
2016-08-01T01:27:56.449Z,739.44
2016-08-01T01:28:56.447Z,739.4
2016-08-01T01:29:56.435Z,739.38
2016-08-01T01:30:56.418Z,739.4
2016-08-01T01:31:56.428Z,739.43
2016-08-01T01:32:56.403Z,739.46
2016-08-01T01:33:56.393Z,739.42
2016-08-01T01:34:56.376Z,739.44
2016-08-01T01:35:56.367Z,739.49
2016-08-01T01:36:56.356Z,739.5
2016-08-01T01:37:56.353Z,739.46
2016-08-01T01:38:56.337Z,739.46
2016-08-01T01:39:56.326Z,739.42
2016-08-01T01:40:56.322Z,739.44
2016-08-01T01:41:56.305Z,739.4
2016-08-01T01:42:56.301Z,739.33
2016-08-01T01:43:56.291Z,739.38
2016-08-01T01:44:56.275Z,739.41
2016-08-01T01:45:56.270Z,739.48
2016-08-01T01:46:56.254Z,739.37
2016-08-01T01:47:56.250Z,739.45
2016-08-01T01:48:56.240Z,739.41
2016-08-01T01:49:56.234Z,739.45
2016-08-01T01:50:56.218Z,739.45
2016-08-01T01:51:56.199Z,739.43
2016-08-01T01:52:56.196Z,739.41
2016-08-01T01:53:56.179Z,739.43
2016-08-01T01:54:56.174Z,739.38
2016-08-01T01:55:56.158Z,739.38
2016-08-01T01:56:56.153Z,739.4
2016-08-01T01:57:56.136Z,739.46
2016-08-01T01:58:56.132Z,739.49
2016-08-01T01:59:56.121Z,739.49
2016-08-01T02:00:56.110Z,739.41
2016-08-01T02:01:56.100Z,739.47
2016-08-01T02:02:56.088Z,739.47
2016-08-01T02:03:56.078Z,739.45
2016-08-01T02:04:56.068Z,739.43
2016-08-01T02:05:56.051Z,739.4
2016-08-01T02:06:56.041Z,739.43
2016-08-01T02:07:56.037Z,739.44
2016-08-01T02:08:56.026Z,739.46
2016-08-01T02:09:56.016Z,739.47
2016-08-01T02:10:56.006Z,739.43
2016-08-01T02:11:55.990Z,739.42
2016-08-01T02:12:55.980Z,739.42
2016-08-01T02:13:55.974Z,739.46
2016-08-01T02:14:55.964Z,739.48
2016-08-01T02:15:55.956Z,739.45
2016-08-01T02:16:55.937Z,739.45
2016-08-01T02:17:55.927Z,739.46
2016-08-01T02:19:55.914Z,739.46
2016-08-01T02:20:55.896Z,739.47
2016-08-01T02:21:55.887Z,739.46
2016-08-01T02:22:55.885Z,739.43
2016-08-01T02:23:55.873Z,739.49
2016-08-01T02:24:55.863Z,739.49
2016-08-01T02:25:55.848Z,739.48
2016-08-01T02:26:55.838Z,739.49
2016-08-01T02:27:55.829Z,739.5
2016-08-01T02:28:55.818Z,739.48
2016-08-01T02:29:55.809Z,739.49
2016-08-01T02:30:55.798Z,739.48
2016-08-01T02:31:55.796Z,739.47
2016-08-01T02:32:55.787Z,739.4
2016-08-01T02:34:55.759Z,739.43
2016-08-01T02:35:55.757Z,739.41
2016-08-01T02:36:55.740Z,739.4
2016-08-01T02:37:55.731Z,739.36
2016-08-01T02:38:55.720Z,739.38
2016-08-01T02:39:55.718Z,739.4
2016-08-01T02:40:55.702Z,739.36
2016-08-01T02:41:55.692Z,739.36
2016-08-01T02:42:55.683Z,739.42
2016-08-01T02:43:55.672Z,739.4
2016-08-01T02:44:55.670Z,739.4
2016-08-01T02:45:55.653Z,739.38
2016-08-01T02:46:55.650Z,739.37
2016-08-01T02:47:55.634Z,739.35
2016-08-01T02:49:55.614Z,739.36
2016-08-01T02:50:55.612Z,739.36
2016-08-01T02:51:55.596Z,739.35
2016-08-01T02:52:55.586Z,739.36
2016-08-01T02:53:55.577Z,739.36
2016-08-01T02:54:55.575Z,739.36
2016-08-01T02:55:55.566Z,739.38
2016-08-01T02:56:55.548Z,739.39
2016-08-01T02:57:55.546Z,739.35
2016-08-01T02:58:55.537Z,739.37
2016-08-01T02:59:55.521Z,739.39
2016-08-01T03:00:55.512Z,739.33
2016-08-01T03:01:55.503Z,739.39
2016-08-01T03:02:55.501Z,739.38
2016-08-01T03:03:55.491Z,739.37
2016-08-01T03:04:55.481Z,739.37
2016-08-01T03:05:55.467Z,739.38
2016-08-01T03:06:55.462Z,739.4
2016-08-01T03:07:55.447Z,739.4
2016-08-01T03:08:55.439Z,739.39
2016-08-01T03:09:55.429Z,739.41
2016-08-01T03:10:55.420Z,739.43
2016-08-01T03:11:55.411Z,739.42
2016-08-01T03:12:55.409Z,739.4
2016-08-01T03:13:55.393Z,739.42
2016-08-01T03:14:55.384Z,739.42
2016-08-01T03:15:55.381Z,739.41
2016-08-01T03:16:55.372Z,739.43
2016-08-01T03:17:55.363Z,739.4
2016-08-01T03:18:55.353Z,739.42
2016-08-01T03:19:55.344Z,739.41
2016-08-01T03:20:55.327Z,739.41
2016-08-01T03:21:55.325Z,739.39
2016-08-01T03:22:55.309Z,739.4
2016-08-01T03:23:55.306Z,739.4
2016-08-01T03:24:55.297Z,739.45
2016-08-01T03:25:55.280Z,739.4
2016-08-01T03:26:55.278Z,739.38
2016-08-01T03:27:55.268Z,739.44
2016-08-01T03:28:55.252Z,739.45
2016-08-01T03:29:55.244Z,739.45
2016-08-01T03:30:55.234Z,739.46
2016-08-01T03:31:55.231Z,739.51
2016-08-01T03:32:55.221Z,739.46
2016-08-01T03:33:55.212Z,739.42
2016-08-01T03:34:55.195Z,739.44
2016-08-01T03:35:55.193Z,739.43
2016-08-01T03:36:55.176Z,739.44
2016-08-01T03:37:55.166Z,739.44
2016-08-01T03:38:55.163Z,739.45
2016-08-01T03:39:55.154Z,739.46
2016-08-01T03:40:55.144Z,739.44
2016-08-01T03:41:55.126Z,739.44
2016-08-01T03:42:55.117Z,739.44
2016-08-01T03:43:55.115Z,739.43
2016-08-01T03:44:55.099Z,739.44
2016-08-01T03:45:55.102Z,739.48
2016-08-01T03:46:55.086Z,739.51
2016-08-01T03:47:55.076Z,739.53
2016-08-01T03:48:55.059Z,739.56
2016-08-01T03:49:55.050Z,739.57
2016-08-01T03:50:55.048Z,739.6
2016-08-01T03:51:55.031Z,739.61
2016-08-01T03:52:55.020Z,739.59
2016-08-01T03:53:55.018Z,739.61
2016-08-01T03:54:55.002Z,739.6
2016-08-01T03:55:54.998Z,739.62
2016-08-01T03:56:54.983Z,739.62
2016-08-01T03:57:54.981Z,739.61
2016-08-01T03:58:54.970Z,739.62
2016-08-01T03:59:54.961Z,739.61
2016-08-01T04:00:54.951Z,739.57
2016-08-01T04:01:54.937Z,739.6
2016-08-01T04:02:54.926Z,739.56
2016-08-01T04:03:54.916Z,739.53
2016-08-01T04:04:54.907Z,739.52
2016-08-01T04:05:54.904Z,739.53
2016-08-01T04:06:54.895Z,739.54
2016-08-01T04:07:54.885Z,739.56
2016-08-01T04:08:54.877Z,739.61
2016-08-01T04:09:54.860Z,739.59
2016-08-01T04:10:54.850Z,739.63
2016-08-01T04:11:54.842Z,739.67
2016-08-01T04:12:54.834Z,739.61
2016-08-01T04:13:54.822Z,739.67
2016-08-01T04:14:54.814Z,739.63
2016-08-01T04:15:54.804Z,739.68
2016-08-01T04:16:54.794Z,739.66
2016-08-01T04:17:54.792Z,739.64
2016-08-01T04:18:54.782Z,739.69
2016-08-01T04:19:54.767Z,739.63
2016-08-01T04:20:54.762Z,739.66
2016-08-01T04:21:54.746Z,739.67
2016-08-01T04:22:54.744Z,739.67
2016-08-01T04:23:54.735Z,739.61
2016-08-01T04:24:54.724Z,739.68
2016-08-01T04:25:54.715Z,739.69
2016-08-01T04:26:54.707Z,739.72
2016-08-01T04:27:54.696Z,739.69
2016-08-01T04:28:54.679Z,739.66
2016-08-01T04:29:54.684Z,739.72
2016-08-01T04:30:54.668Z,739.71
2016-08-01T04:31:54.651Z,739.72
2016-08-01T04:32:54.642Z,739.75
2016-08-01T04:33:54.639Z,739.76
2016-08-01T04:34:54.624Z,739.68
2016-08-01T04:35:54.621Z,739.72
2016-08-01T04:36:54.604Z,739.71
2016-08-01T04:37:54.602Z,739.69
2016-08-01T04:38:54.586Z,739.7
2016-08-01T04:39:54.576Z,739.68
2016-08-01T04:40:54.566Z,739.71
2016-08-01T04:41:54.564Z,739.71
2016-08-01T04:42:54.547Z,739.68
2016-08-01T04:43:54.538Z,739.7
2016-08-01T04:44:54.528Z,739.68
2016-08-01T04:45:54.524Z,739.71
2016-08-01T04:46:54.513Z,739.65
2016-08-01T04:47:54.497Z,739.68
2016-08-01T04:48:54.493Z,739.69
2016-08-01T04:49:54.475Z,739.71
2016-08-01T04:50:54.473Z,739.75
2016-08-01T04:51:54.455Z,739.78
2016-08-01T04:52:54.453Z,739.76
2016-08-01T04:53:54.446Z,739.79
2016-08-01T04:54:54.431Z,739.74
2016-08-01T04:55:54.416Z,739.75
2016-08-01T04:56:54.412Z,739.73
2016-08-01T04:57:54.393Z,739.79
2016-08-01T04:58:54.392Z,739.77
2016-08-01T04:59:54.382Z,739.83
2016-08-01T05:00:54.371Z,739.82
2016-08-01T05:01:54.354Z,739.77
2016-08-01T05:02:54.344Z,739.75
2016-08-01T05:03:54.341Z,739.75
2016-08-01T05:04:54.324Z,739.77
2016-08-01T05:05:54.322Z,739.73
2016-08-01T05:06:54.312Z,739.77
2016-08-01T05:07:54.297Z,739.82
2016-08-01T05:08:54.294Z,739.8
2016-08-01T05:09:54.277Z,739.79
2016-08-01T05:10:54.275Z,739.84
2016-08-01T05:11:54.258Z,739.8
2016-08-01T05:12:54.255Z,739.79
2016-08-01T05:13:54.240Z,739.79
2016-08-01T05:14:54.237Z,739.77
2016-08-01T05:15:54.220Z,739.79
2016-08-01T05:16:54.217Z,739.77
2016-08-01T05:17:54.201Z,739.77
2016-08-01T05:18:54.190Z,739.78
2016-08-01T05:19:54.189Z,739.77
2016-08-01T05:20:54.180Z,739.75
2016-08-01T05:21:54.164Z,739.78
2016-08-01T05:22:54.161Z,739.79
2016-08-01T05:23:54.145Z,739.78
2016-08-01T05:24:54.143Z,739.8
2016-08-01T05:25:54.135Z,739.77
2016-08-01T05:26:54.118Z,739.76
2016-08-01T05:27:54.115Z,739.78
2016-08-01T05:28:54.106Z,739.77
2016-08-01T05:29:54.097Z,739.76
2016-08-01T05:30:54.080Z,739.76
2016-08-01T05:31:54.079Z,739.79
2016-08-01T05:32:54.064Z,739.78
2016-08-01T05:33:54.053Z,739.78
2016-08-01T05:34:54.045Z,739.8
2016-08-01T05:35:54.041Z,739.84
2016-08-01T05:36:54.026Z,739.8
2016-08-01T05:37:54.016Z,739.77
2016-08-01T05:38:54.013Z,739.78
2016-08-01T05:39:53.998Z,739.78
2016-08-01T05:40:53.995Z,739.76
2016-08-01T05:41:53.986Z,739.77
2016-08-01T05:42:53.978Z,739.78
2016-08-01T05:43:53.968Z,739.79
2016-08-01T05:44:53.950Z,739.81
2016-08-01T05:45:53.949Z,739.81
2016-08-01T05:46:53.933Z,739.81
2016-08-01T05:47:53.932Z,739.8
2016-08-01T05:48:53.915Z,739.77
2016-08-01T05:49:53.905Z,739.75
2016-08-01T05:50:53.896Z,739.77
2016-08-01T05:51:53.886Z,739.78
2016-08-01T05:52:53.882Z,739.79
2016-08-01T05:53:53.866Z,739.8
2016-08-01T05:54:53.856Z,739.85
2016-08-01T05:55:53.847Z,739.86
2016-08-01T05:56:53.843Z,739.83
2016-08-01T05:57:53.827Z,739.82
2016-08-01T05:58:53.816Z,739.82
2016-08-01T05:59:53.812Z,739.78
2016-08-01T06:00:53.798Z,739.79
2016-08-01T06:01:53.791Z,739.77
2016-08-01T06:02:53.782Z,739.81
2016-08-01T06:03:53.764Z,739.83
2016-08-01T06:04:53.753Z,739.81
2016-08-01T06:05:53.751Z,739.86
2016-08-01T06:06:53.734Z,739.83
2016-08-01T06:07:53.729Z,739.88
2016-08-01T06:08:53.712Z,739.81
2016-08-01T06:09:53.710Z,739.83
2016-08-01T06:10:53.693Z,739.8
2016-08-01T06:11:53.682Z,739.81
2016-08-01T06:12:53.678Z,739.83
2016-08-01T06:13:53.667Z,739.85
2016-08-01T06:14:53.657Z,739.87
2016-08-01T06:15:53.648Z,739.85
2016-08-01T06:16:53.630Z,739.87
2016-08-01T06:17:53.625Z,739.85
2016-08-01T06:18:53.609Z,739.86
2016-08-01T06:19:53.604Z,739.89
2016-08-01T06:20:53.589Z,739.9
2016-08-01T06:21:53.578Z,739.87
2016-08-01T06:22:53.573Z,739.87
2016-08-01T06:23:53.563Z,739.92
2016-08-01T06:24:53.552Z,739.91
2016-08-01T06:25:53.541Z,739.92
2016-08-01T06:26:53.532Z,739.89
2016-08-01T06:27:53.520Z,739.92
2016-08-01T06:28:53.509Z,739.92
2016-08-01T06:29:53.492Z,739.92
2016-08-01T06:30:53.481Z,739.93
2016-08-01T06:31:53.477Z,739.92
2016-08-01T06:32:53.465Z,739.89
2016-08-01T06:33:53.447Z,739.87
2016-08-01T06:34:53.444Z,739.85
2016-08-01T06:35:53.426Z,739.85
2016-08-01T06:36:53.414Z,739.86
2016-08-01T06:37:53.412Z,739.8
2016-08-01T06:38:53.400Z,739.82
2016-08-01T06:39:53.389Z,739.83
2016-08-01T06:40:53.378Z,739.83
2016-08-01T06:41:53.361Z,739.82
2016-08-01T06:42:53.351Z,739.79
2016-08-01T06:43:53.347Z,739.84
2016-08-01T06:44:53.331Z,739.81
2016-08-01T06:45:53.326Z,739.83
2016-08-01T06:46:53.307Z,739.8
2016-08-01T06:47:53.304Z,739.88
2016-08-01T06:48:53.286Z,739.8
2016-08-01T06:49:53.277Z,739.82
2016-08-01T06:50:53.281Z,739.87
2016-08-01T06:51:53.259Z,739.78
2016-08-01T06:52:53.249Z,739.86
2016-08-01T06:53:53.238Z,739.82
2016-08-01T06:54:53.221Z,739.86
2016-08-01T06:55:53.210Z,739.79
2016-08-01T06:56:53.199Z,739.87
2016-08-01T06:57:53.205Z,739.88
2016-08-01T06:58:53.176Z,739.91
2016-08-01T06:59:53.172Z,739.87
2016-08-01T07:00:53.155Z,739.92
2016-08-01T07:01:53.144Z,739.86
2016-08-01T07:02:53.134Z,739.87
2016-08-01T07:03:53.122Z,739.9
2016-08-01T07:05:53.100Z,739.94
2016-08-01T07:06:53.095Z,739.97
2016-08-01T07:07:53.085Z,739.93
2016-08-01T07:08:53.073Z,739.91
2016-08-01T07:09:53.063Z,739.96
2016-08-01T07:10:53.053Z,739.95
2016-08-01T07:11:53.043Z,739.94
2016-08-01T07:12:53.025Z,739.9
2016-08-01T07:13:53.014Z,739.89
2016-08-01T07:14:53.011Z,739.96
2016-08-01T07:15:52.999Z,739.87
2016-08-01T07:16:52.984Z,739.95
2016-08-01T07:17:52.979Z,739.94
2016-08-01T07:18:52.963Z,739.95
2016-08-01T07:20:52.947Z,739.91
2016-08-01T07:21:52.931Z,739.9
2016-08-01T07:22:52.920Z,739.93
2016-08-01T07:23:52.916Z,739.98
2016-08-01T07:24:52.899Z,739.94
2016-08-01T07:25:52.887Z,739.92
2016-08-01T07:26:52.877Z,739.97
2016-08-01T07:27:52.873Z,739.99
2016-08-01T07:28:52.861Z,740.04
2016-08-01T07:29:52.846Z,740.01
2016-08-01T07:30:52.834Z,740.06
2016-08-01T07:31:52.830Z,740.12
2016-08-01T07:32:52.813Z,740.12
2016-08-01T07:42:02.226Z,740.18
2016-08-01T07:43:02.215Z,740.14
2016-08-01T07:44:02.210Z,740.22
2016-08-01T07:45:02.193Z,740.22
2016-08-01T07:46:02.226Z,740.23
2016-08-01T07:47:02.220Z,740.27
2016-08-01T07:48:02.172Z,740.26
2016-08-01T07:49:02.157Z,740.22
2016-08-01T07:51:02.128Z,740.22
2016-08-01T07:52:02.117Z,740.23
2016-08-01T07:53:02.112Z,740.24
2016-08-01T07:54:02.095Z,740.26
2016-08-01T07:55:02.091Z,740.24
2016-08-01T07:56:02.073Z,740.25
2016-08-01T07:57:02.072Z,740.3
2016-08-01T07:58:02.052Z,740.32
2016-08-01T07:59:02.048Z,740.31
2016-08-01T08:00:02.037Z,740.3
2016-08-01T08:01:02.025Z,740.3
2016-08-01T08:02:02.034Z,740.29
2016-08-01T08:03:01.997Z,740.34
2016-08-01T08:04:01.994Z,740.26
2016-08-01T08:06:01.972Z,740.29
2016-08-01T08:07:01.962Z,740.3
2016-08-01T08:08:01.950Z,740.29
2016-08-01T08:09:01.940Z,740.27
2016-08-01T08:10:01.930Z,740.36
2016-08-01T08:11:01.919Z,740.35
2016-08-01T08:12:01.909Z,740.33
2016-08-01T08:13:01.892Z,740.34
2016-08-01T08:14:01.888Z,740.38
2016-08-01T08:15:01.878Z,740.32
2016-08-01T08:16:01.865Z,740.35
2016-08-01T08:17:01.849Z,740.37
2016-08-01T08:18:01.845Z,740.3
2016-08-01T08:19:01.827Z,740.27
2016-08-01T08:20:01.827Z,740.31
2016-08-01T08:21:01.805Z,740.37
2016-08-01T08:22:01.793Z,740.4
2016-08-01T08:23:01.789Z,740.3
2016-08-01T08:24:01.773Z,740.32
2016-08-01T08:25:01.768Z,740.28
2016-08-01T08:26:01.756Z,740.29
2016-08-01T08:27:01.746Z,740.41
2016-08-01T08:28:01.735Z,740.36
2016-08-01T08:29:01.717Z,740.4
2016-08-01T08:30:01.713Z,740.36
2016-08-01T08:31:01.695Z,740.35
2016-08-01T08:32:01.692Z,740.25
2016-08-01T08:33:01.681Z,740.3
2016-08-01T08:34:01.662Z,740.4
2016-08-01T08:35:01.658Z,740.31
2016-08-01T08:36:01.648Z,740.31
2016-08-01T08:37:01.628Z,740.29
2016-08-01T08:38:01.623Z,740.34
2016-08-01T08:39:01.608Z,740.34
2016-08-01T08:40:01.597Z,740.25
2016-08-01T08:41:01.592Z,740.3
2016-08-01T08:42:01.575Z,740.32
2016-08-01T08:43:01.570Z,740.29
2016-08-01T08:44:01.554Z,740.32
2016-08-01T08:45:01.549Z,740.38
2016-08-01T08:46:01.531Z,740.32
2016-08-01T08:47:01.520Z,740.34
2016-08-01T08:48:01.516Z,740.31
2016-08-01T08:49:01.506Z,740.37
2016-08-01T08:50:01.496Z,740.33
2016-08-01T08:51:01.486Z,740.32
2016-08-01T08:52:01.474Z,740.32
2016-08-01T08:53:01.464Z,740.34
2016-08-01T08:54:01.448Z,740.33
2016-08-01T08:55:01.437Z,740.39
2016-08-01T08:56:01.434Z,740.34
2016-08-01T08:57:01.415Z,740.32
2016-08-01T08:58:01.413Z,740.34
2016-08-01T08:59:01.402Z,740.31
2016-08-01T09:00:01.386Z,740.35
2016-08-01T09:01:01.376Z,740.34
2016-08-01T09:02:01.366Z,740.31
2016-08-01T09:03:01.565Z,740.36
2016-08-01T09:04:01.347Z,740.33
2016-08-01T09:05:01.337Z,740.33
2016-08-01T09:06:01.324Z,740.37
2016-08-01T09:07:01.323Z,740.42
2016-08-01T09:08:01.306Z,740.34
2016-08-01T09:09:01.296Z,740.36
2016-08-01T09:10:01.292Z,740.36
2016-08-01T09:11:01.274Z,740.33
2016-08-01T09:12:01.273Z,740.36
2016-08-01T09:13:01.263Z,740.41
2016-08-01T09:14:01.244Z,740.43
2016-08-01T09:15:01.246Z,740.41
2016-08-01T09:16:01.225Z,740.49
2016-08-01T09:17:01.221Z,740.52
2016-08-01T09:18:01.211Z,740.46
2016-08-01T09:19:01.201Z,740.45
2016-08-01T09:20:01.184Z,740.47
2016-08-01T09:21:01.174Z,740.47
2016-08-01T09:22:01.170Z,740.54
2016-08-01T09:23:01.155Z,740.46
2016-08-01T09:24:01.149Z,740.58
2016-08-01T09:25:01.134Z,740.57
2016-08-01T09:26:01.130Z,740.6
2016-08-01T09:27:01.115Z,740.56
2016-08-01T09:28:01.111Z,740.52
2016-08-01T09:29:01.100Z,740.56
2016-08-01T09:30:01.090Z,740.58
2016-08-01T09:31:01.081Z,740.62
2016-08-01T09:32:01.062Z,740.62
2016-08-01T09:33:01.055Z,740.67
2016-08-01T09:34:01.051Z,740.72
2016-08-01T09:35:01.042Z,740.74
2016-08-01T09:36:01.031Z,740.79
2016-08-01T09:37:01.015Z,740.75
2016-08-01T09:38:01.013Z,740.71
2016-08-01T09:39:00.995Z,740.77
2016-08-01T09:40:00.988Z,740.75
2016-08-01T09:41:00.985Z,740.73
2016-08-01T09:42:00.976Z,740.81
2016-08-01T09:43:00.960Z,740.85
2016-08-01T09:44:00.951Z,740.87
2016-08-01T09:45:00.948Z,740.9
2016-08-01T09:46:00.934Z,740.86
2016-08-01T09:47:00.924Z,740.96
2016-08-01T09:48:00.917Z,741.06
2016-08-01T09:49:00.915Z,740.93
2016-08-01T09:50:00.905Z,740.94
2016-08-01T09:51:00.892Z,740.96
2016-08-01T09:52:00.889Z,741.03
2016-08-01T09:53:00.876Z,740.98
2016-08-01T09:54:01.069Z,740.89
2016-08-01T09:55:00.859Z,740.88
2016-08-01T09:56:00.850Z,740.96
2016-08-01T09:57:00.849Z,740.91
2016-08-01T09:58:00.841Z,740.91
2016-08-01T09:59:00.828Z,740.9
2016-08-01T10:00:00.826Z,740.89
2016-08-01T10:01:00.810Z,740.86
2016-08-01T10:02:00.812Z,740.88
2016-08-01T10:03:00.802Z,740.94
2016-08-01T10:04:00.789Z,740.93
2016-08-01T10:05:00.785Z,740.89
2016-08-01T10:06:00.772Z,740.87
2016-08-01T10:07:00.763Z,740.9
2016-08-01T10:08:00.762Z,740.9
2016-08-01T10:09:00.749Z,740.85
2016-08-01T10:10:00.739Z,740.88
2016-08-01T10:11:00.733Z,740.87
2016-08-01T10:12:00.722Z,740.83
2016-08-01T10:13:00.721Z,740.86
2016-08-01T10:14:00.706Z,740.82
2016-08-01T10:15:00.698Z,740.83
2016-08-01T10:16:00.696Z,740.79
2016-08-01T10:17:00.681Z,740.78
2016-08-01T10:18:00.679Z,740.78
2016-08-01T10:19:00.663Z,740.8
2016-08-01T10:20:00.662Z,740.86
2016-08-01T10:21:00.653Z,740.87
2016-08-01T10:22:00.638Z,740.85
2016-08-01T10:23:00.635Z,740.86
2016-08-01T10:24:00.625Z,740.8
2016-08-01T10:25:00.612Z,740.86
2016-08-01T10:26:00.609Z,740.87
2016-08-01T10:27:00.595Z,740.85
2016-08-01T10:28:00.590Z,740.85
2016-08-01T10:29:00.585Z,740.79
2016-08-01T10:30:00.565Z,740.92
2016-08-01T10:31:00.765Z,740.87
2016-08-01T10:32:00.546Z,740.83
2016-08-01T10:33:00.539Z,740.82
2016-08-01T10:34:00.533Z,740.87
2016-08-01T10:35:00.525Z,740.84
2016-08-01T10:36:00.508Z,740.9
2016-08-01T10:37:00.500Z,740.87
2016-08-01T10:38:00.495Z,740.91
2016-08-01T10:39:00.479Z,740.76
2016-08-01T10:40:00.469Z,740.87
2016-08-01T10:41:00.466Z,740.9
2016-08-01T10:42:00.449Z,740.9
2016-08-01T10:43:00.446Z,740.91
2016-08-01T10:44:00.429Z,740.84
2016-08-01T10:45:00.419Z,740.81
2016-08-01T10:46:00.617Z,740.89
2016-08-01T10:47:00.400Z,740.89
2016-08-01T10:48:00.402Z,740.89
2016-08-01T10:49:00.377Z,740.87
2016-08-01T10:50:00.368Z,740.9
2016-08-01T10:51:00.365Z,740.86
2016-08-01T10:52:00.347Z,740.92
2016-08-01T10:53:00.338Z,740.92
2016-08-01T10:54:00.326Z,740.88
2016-08-01T10:55:00.323Z,740.85
2016-08-01T10:56:00.507Z,740.84
2016-08-01T10:57:01.710Z,740.92
2016-08-01T10:58:00.292Z,740.9
2016-08-01T10:59:00.276Z,740.92
2016-08-01T11:00:00.271Z,740.93
2016-08-01T11:01:00.260Z,740.93
2016-08-01T11:02:00.244Z,740.93
2016-08-01T11:03:00.239Z,740.93
2016-08-01T11:04:00.223Z,740.96
2016-08-01T11:05:00.220Z,740.97
2016-08-01T11:06:00.202Z,740.91
2016-08-01T11:07:00.198Z,740.99
2016-08-01T11:08:00.181Z,740.92
2016-08-01T11:09:00.179Z,740.97
2016-08-01T11:10:00.161Z,740.94
2016-08-01T11:11:00.153Z,740.91
2016-08-01T11:12:00.140Z,740.95
2016-08-01T11:13:00.138Z,740.91
2016-08-01T11:14:00.127Z,740.95
2016-08-01T11:15:00.118Z,740.93
2016-08-01T11:16:00.102Z,740.89
2016-08-01T11:17:00.091Z,740.88
2016-08-01T11:18:00.088Z,740.88
2016-08-01T11:19:00.078Z,740.77
2016-08-01T11:20:00.061Z,740.81
2016-08-01T11:21:00.051Z,740.88
2016-08-01T11:22:00.041Z,740.84
2016-08-01T11:23:00.039Z,740.92
2016-08-01T11:24:00.040Z,740.91
2016-08-01T11:25:00.010Z,740.88
2016-08-01T11:26:00.008Z,740.92
2016-08-01T11:26:59.991Z,740.88
2016-08-01T11:27:59.980Z,740.88
2016-08-01T11:28:59.977Z,740.92
2016-08-01T11:29:59.966Z,740.91
2016-08-01T11:30:59.949Z,740.95
2016-08-01T11:31:59.938Z,740.93
2016-08-01T11:32:59.929Z,740.95
2016-08-01T11:33:59.919Z,740.89
2016-08-01T11:35:00.111Z,740.95
2016-08-01T11:35:59.904Z,740.91
2016-08-01T11:36:59.887Z,740.93
2016-08-01T11:37:59.883Z,740.99
2016-08-01T11:38:59.866Z,740.92
2016-08-01T11:39:59.863Z,740.95
2016-08-01T11:40:59.846Z,740.95
2016-08-01T11:41:59.842Z,740.92
2016-08-01T11:42:59.825Z,740.94
2016-08-01T11:43:59.821Z,740.9
2016-08-01T11:44:59.803Z,740.98
2016-08-01T11:45:59.801Z,740.98
2016-08-01T11:46:59.790Z,741.01
2016-08-01T11:47:59.780Z,741.02
2016-08-01T11:48:59.769Z,741.02
2016-08-01T11:49:59.760Z,741.03
2016-08-01T11:50:59.742Z,741.02
2016-08-01T11:51:59.731Z,741.02
2016-08-01T11:52:59.721Z,740.98
2016-08-01T11:53:59.717Z,741.01
2016-08-01T11:54:59.707Z,741.01
2016-08-01T11:55:59.697Z,740.98
2016-08-01T11:56:59.679Z,740.99
2016-08-01T11:57:59.670Z,741.01
2016-08-01T11:58:59.660Z,740.96
2016-08-01T11:59:59.655Z,741.04
2016-08-01T12:00:59.638Z,740.97
2016-08-01T12:01:59.635Z,741
2016-08-01T12:02:59.624Z,740.97
2016-08-01T12:03:59.614Z,740.96
2016-08-01T12:04:59.597Z,740.98
2016-08-01T12:05:59.585Z,740.95
2016-08-01T12:06:59.582Z,740.94
2016-08-01T12:07:59.573Z,740.98
2016-08-01T12:08:59.555Z,740.97
2016-08-01T12:09:59.551Z,741.02
2016-08-01T12:10:59.736Z,741.01
2016-08-01T12:11:59.528Z,740.97
2016-08-01T12:12:59.524Z,740.94
2016-08-01T12:13:59.502Z,740.87
2016-08-01T12:14:59.503Z,741
2016-08-01T12:15:59.488Z,741.01
2016-08-01T12:16:59.478Z,740.99
2016-08-01T12:17:59.460Z,741.05
2016-08-01T12:18:59.457Z,741.01
2016-08-01T12:19:59.446Z,741.02
2016-08-01T12:21:59.418Z,741.05
2016-08-01T12:22:59.408Z,740.97
2016-08-01T12:23:59.404Z,741
2016-08-01T12:24:59.388Z,741.04
2016-08-01T12:25:59.384Z,741
2016-08-01T12:26:59.366Z,741.07
2016-08-01T12:27:59.355Z,741.04
2016-08-01T12:28:59.352Z,741.03
2016-08-01T12:29:59.335Z,741.08
2016-08-01T12:30:59.326Z,740.98
2016-08-01T12:31:59.322Z,741.01
2016-08-01T12:32:59.311Z,741.06
2016-08-01T12:33:59.302Z,741.02
2016-08-01T12:34:59.284Z,741.08
2016-08-01T12:36:59.270Z,741.05
2016-08-01T12:37:59.259Z,741.02
2016-08-01T12:38:59.250Z,741.04
2016-08-01T12:39:59.232Z,741.04
2016-08-01T12:40:59.222Z,741.01
2016-08-01T12:41:59.218Z,740.98
2016-08-01T12:42:59.201Z,740.97
2016-08-01T12:43:59.198Z,740.95
2016-08-01T12:44:59.180Z,741.05
2016-08-01T12:45:59.176Z,741.09
2016-08-01T12:46:59.160Z,741.06
2016-08-01T12:47:59.157Z,741.15
2016-08-01T12:48:59.145Z,741.19
2016-08-01T12:49:59.127Z,741.21